Terminal Aerodrome Forecast
Issued by NWS

Home | Current Version | Previous Version | Text Only | Print | Product List | Glossary On
Versions: 1 2 3 4 5 6 7 8 9 10 11 12 13 14 15 16 17
000
FTUS44 KLUB 220500
TAFCDS
TAF
KCDS 220520Z 2206/2306 17008KT P6SM FEW150
     FM221000 18008KT P6SM BKN100
     FM221800 18011KT P6SM BKN040 BKN100 PROB30 2218/2224 5SM -TSRA
      OVC040CB
     FM230000 18005KT P6SM SCT040 BKN100=

USA.gov is the U.S. government's official web portal to all federal, state and local government web resources and services.